Time;durP1;ratioP1;P1;durP2;ratioP2;P2;SDS_P1;SDS_P2;PMS_P1;PMS_P2;Temp;Humidity;BMP_temperature;BMP_pressure;BME280_temperature;BME280_humidity;BME280_pressure;Samples;Min_cycle;Max_cycle;Signal;HPM_P1;HPM_P2
2022/10/27 00:01:37;;;;;;;0.70;0.70;;;;;;;13.39;96.21;96314.34;4331753;33;20197;-58
2022/10/27 00:04:04;;;;;;;0.77;0.77;;;;;;;13.64;95.13;96310.56;4305110;33;20254;-58
2022/10/27 00:06:31;;;;;;;0.50;0.50;;;;;;;13.73;94.71;96314.16;4331046;32;20200;-59
2022/10/27 00:08:56;;;;;;;0.87;0.87;;;;;;;13.71;94.62;96306.47;4307995;33;20300;-59
2022/10/27 00:11:23;;;;;;;0.50;0.50;;;;;;;13.80;94.27;96308.47;4293925;32;20242;-60
2022/10/27 00:13:51;;;;;;;0.60;0.60;;;;;;;13.80;94.00;96314.59;4302939;33;20185;-59
2022/10/27 00:16:17;;;;;;;0.77;0.77;;;;;;;13.75;94.25;96307.44;4309081;33;20223;-59
2022/10/27 00:18:44;;;;;;;1.27;1.27;;;;;;;13.74;94.39;96308.53;4291851;33;20237;-59
2022/10/27 00:21:21;;;;;;;5.10;2.00;;;;;;;13.80;93.97;96314.59;4307897;33;20190;-59
2022/10/27 00:23:51;;;;;;;1.33;1.30;;;;;;;13.80;93.86;96308.47;4328319;33;20177;-59
2022/10/27 00:26:19;;;;;;;0.63;0.63;;;;;;;13.77;93.99;96305.28;4305071;33;20189;-59
2022/10/27 00:28:51;;;;;;;0.83;0.83;;;;;;;13.78;93.99;96306.06;4308831;33;20205;-59
2022/10/27 00:31:19;;;;;;;0.77;0.77;;;;;;;13.75;94.17;96307.44;4329252;32;20241;-59
2022/10/27 00:33:47;;;;;;;1.13;1.00;;;;;;;13.69;94.12;96305.94;4325886;33;20190;-59
2022/10/27 00:36:17;;;;;;;1.03;1.03;;;;;;;13.66;94.14;96305.72;4313158;32;20193;-59
2022/10/27 00:38:43;;;;;;;1.10;0.63;;;;;;;13.63;94.30;96308.97;4286601;33;20257;-59
2022/10/27 00:41:36;;;;;;;3.27;1.60;;;;;;;13.57;94.31;96318.91;4306668;33;20204;-60
2022/10/27 00:44:37;;;;;;;0.73;0.73;;;;;;;13.26;95.11;96315.84;4311018;33;20258;-59
2022/10/27 00:47:23;;;;;;;0.87;0.87;;;;;;;13.08;95.94;96325.34;4319115;33;20252;-59
2022/10/27 00:50:25;;;;;;;2.17;0.97;;;;;;;13.11;96.00;96323.97;4297858;32;20221;-59
2022/10/27 00:53:00;;;;;;;0.87;0.87;;;;;;;13.22;95.37;96322.03;4260153;33;20194;-59
2022/10/27 00:55:32;;;;;;;2.83;1.20;;;;;;;13.22;95.19;96314.03;4310714;32;20201;-60
2022/10/27 00:58:02;;;;;;;2.20;1.50;;;;;;;12.99;96.21;96318.25;4310531;32;20239;-59
2022/10/27 01:00:29;;;;;;;1.33;1.27;;;;;;;13.13;95.96;96313.03;4302530;33;20242;-59
2022/10/27 01:03:18;;;;;;;7.17;1.33;;;;;;;13.09;95.76;96318.94;4273984;33;20258;-59
2022/10/27 01:05:44;;;;;;;0.47;0.47;;;;;;;13.08;95.89;96317.38;4298816;33;20186;-59
2022/10/27 01:08:12;;;;;;;0.70;0.70;;;;;;;13.13;95.60;96318.34;4318040;32;20178;-59
2022/10/27 01:10:39;;;;;;;2.37;1.10;;;;;;;13.14;95.51;96327.94;4303566;33;20206;-59
2022/10/27 01:13:05;;;;;;;0.73;0.73;;;;;;;13.03;95.75;96317.41;4312543;32;20248;-60
2022/10/27 01:16:28;;;;;;;1.07;1.07;;;;;;;12.98;95.96;96330.78;4299891;33;20197;-59
2022/10/27 01:19:28;;;;;;;0.80;0.80;;;;;;;12.98;95.94;96324.66;4308130;32;20190;-60
2022/10/27 01:22:11;;;;;;;0.67;0.67;;;;;;;13.06;95.34;96324.06;4309914;32;20206;-59
2022/10/27 01:25:19;;;;;;;6.23;1.13;;;;;;;13.22;94.96;96322.03;4321338;33;20209;-59
2022/10/27 01:27:54;;;;;;;1.17;1.00;;;;;;;13.18;94.96;96318.34;4307200;33;20198;-59
2022/10/27 01:30:21;;;;;;;1.00;0.97;;;;;;;13.17;94.90;96316.75;4315999;32;20193;-60
2022/10/27 01:33:14;;;;;;;0.63;0.63;;;;;;;13.01;95.22;96319.56;4300615;33;20257;-59
2022/10/27 01:35:53;;;;;;;0.57;0.57;;;;;;;12.98;94.89;96322.00;4293684;33;20252;-61
2022/10/27 01:39:02;;;;;;;0.83;0.83;;;;;;;12.77;95.67;96329.41;4302172;33;20272;-59
2022/10/27 01:41:43;;;;;;;0.73;0.73;;;;;;;12.68;96.21;96317.78;4299840;32;20193;-59
2022/10/27 01:44:21;;;;;;;5.00;1.23;;;;;;;12.56;96.76;96322.69;4277161;33;20202;-63
2022/10/27 01:46:49;;;;;;;0.70;0.70;;;;;;;12.45;96.86;96321.22;4322642;32;20295;-60
2022/10/27 01:49:17;;;;;;;1.20;1.17;;;;;;;12.55;96.76;96321.91;4296698;33;20205;-59
2022/10/27 01:51:43;;;;;;;1.30;1.20;;;;;;;12.53;96.59;96317.94;4305521;32;20181;-59
2022/10/27 01:54:12;;;;;;;0.83;0.83;;;;;;;12.55;96.36;96310.47;4337534;32;20190;-61
2022/10/27 01:57:00;;;;;;;4.10;1.57;;;;;;;12.62;96.29;96313.59;4335673;32;20232;-59
2022/10/27 01:59:46;;;;;;;1.03;0.90;;;;;;;12.73;95.88;96315.06;4315606;33;20198;-59
2022/10/27 02:02:43;;;;;;;1.53;0.70;;;;;;;12.76;95.41;96321.69;4301238;32;20248;-59
2022/10/27 02:05:42;;;;;;;0.60;0.60;;;;;;;12.70;95.50;96318.28;4314585;33;20189;-61
2022/10/27 02:08:41;;;;;;;1.27;0.93;;;;;;;12.72;95.30;96314.28;4314327;33;20190;-59
2022/10/27 02:11:09;;;;;;;1.90;1.57;;;;;;;12.66;95.44;96312.75;4319547;33;20232;-59
2022/10/27 02:13:38;;;;;;;0.53;0.53;;;;;;;12.48;96.04;96317.97;4298468;33;20208;-59
2022/10/27 02:16:28;;;;;;;0.60;0.60;;;;;;;12.46;96.01;96322.81;4266835;33;20187;-60
2022/10/27 02:19:10;;;;;;;0.60;0.60;;;;;;;12.43;96.15;96329.47;4312947;33;20194;-59
2022/10/27 02:21:47;;;;;;;0.60;0.60;;;;;;;12.49;95.94;96327.53;4326033;32;20242;-59
2022/10/27 02:24:14;;;;;;;3.60;1.60;;;;;;;12.53;95.54;96325.91;4319897;32;20260;-60
2022/10/27 02:26:45;;;;;;;2.03;1.70;;;;;;;12.41;95.88;96325.50;4325677;32;20194;-63
2022/10/27 02:29:19;;;;;;;0.60;0.60;;;;;;;12.35;96.30;96319.41;4326782;32;20212;-60
2022/10/27 02:31:50;;;;;;;0.50;0.50;;;;;;;12.30;96.58;96322.13;4333856;32;20264;-59
2022/10/27 02:34:17;;;;;;;0.67;0.67;;;;;;;12.12;97.09;96328.13;4308109;32;20197;-59
2022/10/27 02:36:44;;;;;;;0.90;0.90;;;;;;;12.23;96.58;96325.13;4327114;32;20212;-60
2022/10/27 02:39:09;;;;;;;1.00;1.00;;;;;;;12.27;96.59;96318.16;4318730;32;20182;-60
2022/10/27 02:41:34;;;;;;;0.20;0.20;;;;;;;12.30;96.45;96325.56;4300333;32;20248;-59
2022/10/27 02:44:01;;;;;;;0.27;0.27;;;;;;;12.49;95.50;96312.37;4309387;33;20233;-59
2022/10/27 02:46:26;;;;;;;1.10;1.07;;;;;;;12.57;94.76;96318.97;4319231;32;20269;-60
2022/10/27 02:48:51;;;;;;;0.60;0.60;;;;;;;12.46;95.35;96317.47;4314326;32;20198;-59
2022/10/27 02:51:17;;;;;;;2.73;1.10;;;;;;;12.54;95.04;96309.66;4330224;32;20236;-59
2022/10/27 02:53:43;;;;;;;0.77;0.77;;;;;;;12.53;94.85;96307.28;4327681;32;20199;-59
2022/10/27 02:56:08;;;;;;;0.70;0.70;;;;;;;12.48;94.92;96317.97;4328825;32;20181;-68
2022/10/27 02:58:36;;;;;;;0.80;0.80;;;;;;;12.48;94.97;96320.63;4319869;32;20236;-59
2022/10/27 03:01:03;;;;;;;0.60;0.60;;;;;;;12.31;95.44;96323.72;4311555;33;20408;-60
2022/10/27 03:03:29;;;;;;;1.07;0.93;;;;;;;12.12;96.48;96328.91;4311120;33;20365;-59
2022/10/27 03:05:56;;;;;;;1.07;0.93;;;;;;;12.18;96.42;96329.69;4308769;32;20221;-60
2022/10/27 03:08:21;;;;;;;1.23;0.70;;;;;;;12.18;96.52;96329.69;4310731;33;20324;-59
2022/10/27 03:10:46;;;;;;;0.70;0.63;;;;;;;12.26;95.92;96324.53;4324417;32;20340;-59
2022/10/27 03:13:13;;;;;;;0.43;0.43;;;;;;;12.35;95.56;96317.56;4309626;33;20216;-60
2022/10/27 03:15:47;;;;;;;0.70;0.70;;;;;;;12.43;94.75;96323.34;4327951;32;20208;-60
2022/10/27 03:18:13;;;;;;;0.30;0.30;;;;;;;12.52;94.39;96316.34;4325406;32;20212;-59
2022/10/27 03:20:38;;;;;;;1.73;1.23;;;;;;;12.35;94.86;96320.22;4324692;32;20185;-68
2022/10/27 03:23:04;;;;;;;0.93;0.93;;;;;;;12.47;94.05;96319.06;4304047;32;20190;-60
2022/10/27 03:25:31;;;;;;;3.87;1.20;;;;;;;12.19;94.92;96321.41;4295575;32;20252;-59
2022/10/27 03:27:58;;;;;;;0.73;0.73;;;;;;;12.26;95.07;96313.91;4327867;32;20189;-59
2022/10/27 03:30:24;;;;;;;0.50;0.50;;;;;;;12.23;95.36;96319.81;4327060;32;20185;-59
2022/10/27 03:32:51;;;;;;;0.97;0.97;;;;;;;12.29;94.91;96317.88;4318962;32;20189;-59
2022/10/27 03:35:18;;;;;;;0.57;0.57;;;;;;;12.31;94.48;96321.84;4328595;33;20239;-59
2022/10/27 03:37:53;;;;;;;0.37;0.37;;;;;;;12.22;94.84;96323.53;4306342;32;20300;-59
2022/10/27 03:40:20;;;;;;;0.87;0.87;;;;;;;12.34;94.15;96321.28;4298302;33;20207;-59
2022/10/27 03:42:45;;;;;;;0.37;0.37;;;;;;;12.20;94.86;96320.34;4308497;33;20208;-59
2022/10/27 03:45:13;;;;;;;0.53;0.53;;;;;;;12.26;94.83;96321.13;4301006;32;20194;-61
2022/10/27 03:47:39;;;;;;;5.27;0.80;;;;;;;12.31;94.28;96321.84;4284765;32;20199;-59
2022/10/27 03:50:06;;;;;;;1.80;1.07;;;;;;;12.17;94.87;96323.56;4290810;33;20194;-59
2022/10/27 03:52:33;;;;;;;1.33;1.23;;;;;;;12.14;94.84;96320.66;4305779;33;20194;-63
2022/10/27 03:54:59;;;;;;;2.43;1.13;;;;;;;12.20;95.02;96322.22;4312678;32;20218;-60
2022/10/27 03:57:25;;;;;;;0.80;0.80;;;;;;;12.05;95.19;96331.12;4299676;33;20242;-59
2022/10/27 03:59:50;;;;;;;0.50;0.50;;;;;;;12.03;95.52;96326.06;4301142;33;20212;-59
2022/10/27 04:02:16;;;;;;;0.73;0.73;;;;;;;12.07;95.28;96328.16;4280880;33;20253;-59
2022/10/27 04:04:43;;;;;;;0.50;0.50;;;;;;;11.94;95.90;96326.91;4307277;32;20225;-59
2022/10/27 04:07:08;;;;;;;0.93;0.83;;;;;;;11.95;95.72;96329.31;4322716;32;20185;-59
2022/10/27 04:09:34;;;;;;;1.23;1.23;;;;;;;12.02;95.59;96332.47;4291117;33;20281;-59
2022/10/27 04:11:59;;;;;;;0.70;0.70;;;;;;;12.10;94.86;96332.91;4301405;32;20250;-59
2022/10/27 04:14:25;;;;;;;0.83;0.83;;;;;;;12.22;94.40;96333.38;4292860;33;20235;-60
2022/10/27 04:16:51;;;;;;;0.70;0.70;;;;;;;12.17;94.50;96328.88;4317231;32;20202;-59
2022/10/27 04:19:19;;;;;;;3.73;1.10;;;;;;;12.14;94.37;96340.06;4312142;33;20202;-59
2022/10/27 04:21:44;;;;;;;1.07;1.07;;;;;;;12.17;94.19;96336.06;4312044;33;20228;-60
2022/10/27 04:24:10;;;;;;;0.60;0.60;;;;;;;12.03;94.85;96346.56;4325605;33;20195;-60
2022/10/27 04:26:36;;;;;;;0.70;0.70;;;;;;;11.97;95.00;96345.00;4309585;33;20272;-59
2022/10/27 04:29:03;;;;;;;0.93;0.93;;;;;;;12.11;94.54;96348.59;4295058;33;20440;-59
2022/10/27 04:31:28;;;;;;;0.57;0.57;;;;;;;12.06;94.87;96345.97;4311968;33;20243;-59
2022/10/27 04:33:53;;;;;;;1.20;0.90;;;;;;;12.03;94.57;96344.69;4320177;32;20190;-59
2022/10/27 04:36:19;;;;;;;0.50;0.50;;;;;;;12.07;94.18;96352.09;4314288;33;20208;-59
2022/10/27 04:38:52;;;;;;;5.10;1.23;;;;;;;12.00;94.30;96345.22;4312532;33;20205;-59
2022/10/27 04:41:18;;;;;;;0.60;0.60;;;;;;;12.09;94.04;96345.44;4314258;32;20273;-59
2022/10/27 04:43:48;;;;;;;0.73;0.73;;;;;;;12.19;93.63;96345.38;4315783;32;20216;-59
2022/10/27 04:46:13;;;;;;;0.97;0.97;;;;;;;12.15;93.71;96359.50;4317576;32;20202;-59
2022/10/27 04:48:40;;;;;;;0.90;0.90;;;;;;;12.14;93.63;96350.72;4316037;32;20189;-59
2022/10/27 04:51:06;;;;;;;2.90;0.83;;;;;;;11.89;94.38;96364.19;4330360;32;20263;-60
2022/10/27 04:53:32;;;;;;;3.37;1.10;;;;;;;11.97;94.30;96350.31;4319247;32;20244;-61
2022/10/27 04:55:59;;;;;;;0.83;0.83;;;;;;;12.07;94.09;96346.75;4303295;33;20243;-62
2022/10/27 04:58:24;;;;;;;1.00;1.00;;;;;;;12.00;94.26;96342.56;4336654;32;20231;-64
2022/10/27 05:00:51;;;;;;;0.93;0.93;;;;;;;12.04;94.02;96345.47;4330227;32;20194;-61
2022/10/27 05:03:18;;;;;;;0.67;0.63;;;;;;;12.02;94.20;96350.28;4341815;32;20249;-61
2022/10/27 05:05:44;;;;;;;0.60;0.60;;;;;;;11.97;94.13;96355.63;4295942;33;20220;-61
2022/10/27 05:08:10;;;;;;;0.57;0.57;;;;;;;11.96;94.43;96346.84;4321423;32;20213;-61
2022/10/27 05:10:37;;;;;;;0.40;0.40;;;;;;;12.13;93.35;96351.78;4300325;33;20275;-61
2022/10/27 05:13:03;;;;;;;2.10;1.07;;;;;;;12.03;93.57;96354.53;4325300;32;20194;-61
2022/10/27 05:15:34;;;;;;;0.73;0.73;;;;;;;12.08;93.46;96346.50;4327050;32;20313;-61
2022/10/27 05:18:01;;;;;;;0.50;0.50;;;;;;;12.01;92.99;96343.37;4327387;32;20321;-59
2022/10/27 05:20:27;;;;;;;1.83;1.17;;;;;;;11.99;93.83;96340.19;4321939;32;20201;-59
2022/10/27 05:22:54;;;;;;;0.83;0.83;;;;;;;12.11;92.84;96351.25;4321750;32;20200;-59
2022/10/27 05:25:21;;;;;;;1.13;1.13;;;;;;;12.00;92.75;96344.44;4303858;32;20190;-59
2022/10/27 05:27:46;;;;;;;1.60;1.40;;;;;;;12.01;93.26;96341.50;4323301;32;20189;-59
2022/10/27 05:30:14;;;;;;;1.23;1.13;;;;;;;12.02;93.12;96347.63;4342361;32;20239;-63
2022/10/27 05:32:40;;;;;;;1.27;0.70;;;;;;;12.02;93.28;96347.63;4331458;32;20208;-61
2022/10/27 05:35:07;;;;;;;2.10;0.77;;;;;;;11.96;93.15;96346.06;4296766;33;20198;-62
2022/10/27 05:37:34;;;;;;;0.60;0.60;;;;;;;11.93;93.12;96344.75;4325068;32;20236;-61
2022/10/27 05:40:00;;;;;;;0.83;0.83;;;;;;;11.93;93.07;96343.94;4288797;33;20204;-61
2022/10/27 05:42:27;;;;;;;0.97;0.97;;;;;;;11.83;93.42;96346.69;4309932;32;20253;-61
2022/10/27 05:44:54;;;;;;;1.10;1.00;;;;;;;11.89;92.98;96342.91;4310069;32;20205;-59
2022/10/27 05:47:19;;;;;;;0.63;0.63;;;;;;;11.92;93.19;96356.44;4324235;32;20194;-60
2022/10/27 05:49:45;;;;;;;0.83;0.83;;;;;;;12.04;98.22;96348.13;4320629;32;20212;-60
2022/10/27 05:52:12;;;;;;;1.43;1.33;;;;;;;12.34;100.00;96357.75;4319217;32;20257;-61
2022/10/27 05:54:42;;;;;;;5.17;1.43;;;;;;;12.34;100.00;96357.75;4323368;32;20257;-60
2022/10/27 05:57:09;;;;;;;2.13;1.53;;;;;;;12.57;100.00;96361.56;4327324;32;20193;-60
2022/10/27 05:59:34;;;;;;;1.10;1.07;;;;;;;12.84;100.00;96359.16;4316600;32;20212;-60
2022/10/27 06:02:00;;;;;;;1.93;1.70;;;;;;;12.86;100.00;96359.69;4328546;32;20186;-60
2022/10/27 06:04:25;;;;;;;2.73;1.43;;;;;;;12.57;98.73;96366.88;4317876;32;20194;-60
2022/10/27 06:06:53;;;;;;;0.90;0.90;;;;;;;12.81;100.00;96361.59;4315297;32;20190;-61
2022/10/27 06:09:20;;;;;;;1.13;1.13;;;;;;;12.85;100.00;96359.97;4293162;33;20280;-61
2022/10/27 06:11:47;;;;;;;2.00;1.60;;;;;;;12.95;100.00;96363.31;4304500;32;20200;-60
2022/10/27 06:14:12;;;;;;;0.67;0.67;;;;;;;13.01;100.00;96364.06;4330350;32;20240;-61
2022/10/27 06:16:39;;;;;;;1.20;1.20;;;;;;;13.00;98.60;96373.13;4322976;32;20201;-60
2022/10/27 06:19:05;;;;;;;1.50;1.07;;;;;;;12.99;98.09;96379.53;4291450;33;20245;-60
2022/10/27 06:21:31;;;;;;;1.10;0.90;;;;;;;13.09;98.68;96382.88;4292797;33;20178;-60
2022/10/27 06:23:57;;;;;;;0.63;0.63;;;;;;;13.14;98.61;96391.88;4323892;32;20213;-60
2022/10/27 06:26:25;;;;;;;1.17;1.17;;;;;;;12.89;98.37;96384.94;4306104;33;20197;-59
2022/10/27 06:28:51;;;;;;;1.40;1.10;;;;;;;12.79;98.11;96393.03;4332032;32;20194;-59
2022/10/27 06:31:17;;;;;;;2.70;1.50;;;;;;;12.68;96.37;96395.78;4328135;32;20189;-60
2022/10/27 06:33:44;;;;;;;15.63;1.27;;;;;;;13.07;99.42;96387.72;4320643;32;20194;-59
2022/10/27 06:36:10;;;;;;;0.77;0.77;;;;;;;13.17;98.98;96391.34;4311937;33;20201;-60
2022/10/27 06:38:36;;;;;;;15.47;1.27;;;;;;;12.95;96.00;96400.59;4322841;33;20257;-60
2022/10/27 06:41:01;;;;;;;0.77;0.77;;;;;;;13.31;97.54;96400.25;4317883;32;20284;-59
2022/10/27 06:43:28;;;;;;;1.37;0.93;;;;;;;13.42;97.09;96401.75;4300945;32;20216;-59
2022/10/27 06:45:53;;;;;;;0.80;0.80;;;;;;;13.20;93.68;96398.78;4298740;33;20257;-63
2022/10/27 06:48:20;;;;;;;0.97;0.90;;;;;;;13.27;94.48;96396.59;4325396;32;20193;-59
2022/10/27 06:50:45;;;;;;;1.33;1.23;;;;;;;13.39;95.41;96392.44;4307026;32;20269;-59
2022/10/27 06:53:11;;;;;;;1.13;1.13;;;;;;;13.48;95.02;96403.28;4305565;33;20216;-59
2022/10/27 06:55:36;;;;;;;1.80;1.00;;;;;;;13.59;94.66;96410.06;4311616;33;20198;-59
2022/10/27 06:58:04;;;;;;;1.13;1.03;;;;;;;13.49;92.62;96410.19;4260749;33;20221;-59
2022/10/27 07:00:30;;;;;;;1.70;1.20;;;;;;;13.40;91.54;96411.87;4296265;33;22671;-58
2022/10/27 07:02:55;;;;;;;2.20;1.10;;;;;;;13.45;90.88;96408.38;4314547;33;20248;-59
2022/10/27 07:05:22;;;;;;;5.10;1.60;;;;;;;13.09;88.00;96408.75;4309598;33;20225;-59
2022/10/27 07:07:49;;;;;;;1.10;0.97;;;;;;;12.97;88.22;96406.44;4295924;32;20198;-58
2022/10/27 07:10:15;;;;;;;1.30;1.00;;;;;;;12.74;89.04;96415.16;4320273;32;20244;-58
2022/10/27 07:12:59;;;;;;;0.70;0.70;;;;;;;12.49;90.00;96418.81;4328293;32;20217;-61
2022/10/27 07:15:27;;;;;;;1.13;1.13;;;;;;;12.52;90.24;96420.16;4274206;33;20338;-59
2022/10/27 07:17:55;;;;;;;1.73;0.90;;;;;;;12.53;90.47;96425.19;4278075;32;20257;-58
2022/10/27 07:20:21;;;;;;;0.57;0.57;;;;;;;12.35;90.99;96420.53;4327445;32;20245;-61
2022/10/27 07:22:46;;;;;;;5.13;0.90;;;;;;;12.48;90.85;96417.25;4316805;32;20272;-61
2022/10/27 07:25:15;;;;;;;3.60;0.90;;;;;;;12.55;90.62;96423.03;4321161;32;20190;-61
2022/10/27 07:27:52;;;;;;;0.60;0.60;;;;;;;12.59;90.63;96413.44;4328919;32;20251;-61
2022/10/27 07:30:20;;;;;;;1.73;1.60;;;;;;;12.47;90.61;96420.97;4311597;33;20220;-60
2022/10/27 07:32:47;;;;;;;0.93;0.87;;;;;;;12.58;90.42;96421.69;4337310;32;20215;-60
2022/10/27 07:35:14;;;;;;;0.73;0.73;;;;;;;12.64;90.20;96417.94;4320304;32;20194;-61
2022/10/27 07:37:44;;;;;;;0.60;0.60;;;;;;;12.66;90.60;96413.13;4335778;32;20285;-61
2022/10/27 07:40:11;;;;;;;1.00;1.00;;;;;;;12.51;90.68;96421.22;4308522;33;20202;-66
2022/10/27 07:42:47;;;;;;;2.97;2.43;;;;;;;12.51;90.98;96427.34;4315166;33;20198;-59
2022/10/27 07:45:16;;;;;;;1.23;1.23;;;;;;;12.42;91.40;96422.91;4281604;33;20205;-58
2022/10/27 07:48:01;;;;;;;1.93;1.67;;;;;;;12.50;91.71;96430.28;4263197;33;20213;-59
2022/10/27 07:50:32;;;;;;;4.67;1.37;;;;;;;12.69;91.09;96425.84;4293217;33;20213;-59
2022/10/27 07:52:59;;;;;;;1.07;0.70;;;;;;;12.88;90.30;96432.09;4321378;33;20182;-59
2022/10/27 07:55:27;;;;;;;1.70;1.60;;;;;;;12.84;90.44;96431.06;4324537;32;20198;-58
2022/10/27 07:58:08;;;;;;;1.00;0.97;;;;;;;12.97;90.40;96430.41;4308389;33;20248;-59
2022/10/27 08:00:37;;;;;;;1.40;1.40;;;;;;;12.95;89.95;96437.88;4306386;32;20185;-59
2022/10/27 08:03:05;;;;;;;5.03;2.37;;;;;;;12.88;90.51;96434.78;4312557;33;20189;-59
2022/10/27 08:05:35;;;;;;;3.23;0.90;;;;;;;13.00;90.24;96437.84;4279479;33;20306;-59
2022/10/27 08:08:03;;;;;;;0.77;0.77;;;;;;;13.08;90.10;96434.59;4295848;32;20216;-58
2022/10/27 08:10:50;;;;;;;0.70;0.70;;;;;;;13.16;90.41;96435.84;4285716;33;20346;-59
2022/10/27 08:13:16;;;;;;;4.33;1.10;;;;;;;13.26;90.06;96427.78;4307646;33;20198;-59
2022/10/27 08:15:42;;;;;;;0.80;0.80;;;;;;;13.38;89.87;96435.38;4319004;33;20200;-59
2022/10/27 08:18:09;;;;;;;1.27;0.60;;;;;;;13.39;90.17;96420.97;4295722;33;20201;-57
2022/10/27 08:20:43;;;;;;;0.77;0.77;;;;;;;13.43;90.34;96437.97;4285412;33;20209;-57
2022/10/27 08:23:16;;;;;;;0.50;0.50;;;;;;;13.44;90.05;96428.91;4284741;33;20199;-58
2022/10/27 08:25:44;;;;;;;1.53;1.23;;;;;;;14.06;95.75;96429.75;4250486;33;20209;-59
2022/10/27 08:28:13;;;;;;;0.83;0.83;;;;;;;14.29;95.56;96428.88;4293177;32;20220;-61
2022/10/27 08:30:39;;;;;;;1.10;1.00;;;;;;;14.41;94.52;96426.59;4323432;32;20237;-59
2022/10/27 08:33:05;;;;;;;0.63;0.63;;;;;;;14.31;91.18;96426.72;4290098;33;20200;-59
2022/10/27 08:35:34;;;;;;;1.53;1.10;;;;;;;14.46;90.15;96432.94;4327726;32;20284;-58
2022/10/27 08:38:06;;;;;;;1.87;0.80;;;;;;;14.44;87.66;96427.88;4281022;33;20300;-55
2022/10/27 08:40:43;;;;;;;0.57;0.57;;;;;;;14.43;86.53;96428.97;4303657;32;20276;-58
2022/10/27 08:43:46;;;;;;;0.60;0.60;;;;;;;14.41;84.93;96428.47;4277199;33;20263;-58
2022/10/27 08:46:35;;;;;;;0.60;0.60;;;;;;;14.38;86.17;96432.47;4315404;32;20189;-58
2022/10/27 08:49:06;;;;;;;3.00;1.30;;;;;;;14.48;85.87;96436.13;4293263;33;20264;-58
2022/10/27 08:51:35;;;;;;;1.40;0.83;;;;;;;14.45;86.04;96432.16;4317988;32;20265;-59
2022/10/27 08:54:04;;;;;;;0.47;0.47;;;;;;;14.34;87.18;96431.47;4326603;32;20218;-57
2022/10/27 08:56:45;;;;;;;1.97;1.30;;;;;;;14.46;86.95;96430.28;4313127;32;20299;-58
2022/10/27 08:59:17;;;;;;;2.23;1.67;;;;;;;14.50;86.27;96421.41;4330582;32;20185;-57
2022/10/27 09:02:29;;;;;;;0.83;0.83;;;;;;;14.53;86.68;96436.06;4330211;32;20221;-60
2022/10/27 09:05:33;;;;;;;4.00;1.97;;;;;;;14.64;85.74;96424.13;4301411;33;20205;-58
2022/10/27 09:08:16;;;;;;;2.67;1.10;;;;;;;14.75;85.04;96430.91;4323496;32;20228;-57
2022/10/27 09:10:53;;;;;;;18.50;1.30;;;;;;;14.86;84.66;96426.97;4342467;32;20189;-62
2022/10/27 09:13:41;;;;;;;1.00;1.00;;;;;;;14.85;84.70;96417.34;4344961;32;20197;-61
2022/10/27 09:16:15;;;;;;;1.40;1.13;;;;;;;14.87;84.99;96417.84;4320861;32;20190;-60
2022/10/27 09:18:46;;;;;;;1.07;0.83;;;;;;;14.92;83.42;96417.78;4307557;32;20193;-61
2022/10/27 09:21:25;;;;;;;1.80;1.63;;;;;;;15.01;82.73;96418.66;4336737;32;20185;-61
2022/10/27 09:23:55;;;;;;;3.97;1.00;;;;;;;15.02;83.42;96425.59;4319287;33;20243;-61
2022/10/27 09:26:28;;;;;;;2.10;1.90;;;;;;;15.09;82.59;96418.00;4295785;32;20205;-60
2022/10/27 09:29:00;;;;;;;0.73;0.73;;;;;;;15.20;82.36;96417.81;4318303;32;20202;-61
2022/10/27 09:31:37;;;;;;;0.63;0.63;;;;;;;15.23;82.21;96419.91;4329253;32;20195;-60
2022/10/27 09:34:20;;;;;;;0.97;0.97;;;;;;;15.33;81.71;96422.41;4334314;32;20227;-59
2022/10/27 09:36:48;;;;;;;0.50;0.50;;;;;;;15.26;82.28;96419.31;4315076;32;20181;-60
2022/10/27 09:39:13;;;;;;;0.20;0.20;;;;;;;15.46;80.98;96413.56;4308036;32;20212;-59
2022/10/27 09:41:45;;;;;;;0.60;0.60;;;;;;;15.44;81.26;96410.41;4328558;33;20189;-59
2022/10/27 09:44:28;;;;;;;0.87;0.87;;;;;;;15.45;82.11;96403.97;4289405;33;20240;-59
2022/10/27 09:46:56;;;;;;;1.47;0.97;;;;;;;15.53;81.57;96408.63;4326468;32;20198;-59
2022/10/27 09:49:35;;;;;;;0.37;0.37;;;;;;;15.54;81.89;96399.53;4320080;32;20264;-59
2022/10/27 09:52:09;;;;;;;2.63;1.17;;;;;;;15.57;81.53;96398.97;4330716;32;20189;-59
2022/10/27 09:54:38;;;;;;;2.33;1.17;;;;;;;15.54;81.75;96399.53;4325046;32;20264;-59
2022/10/27 09:57:15;;;;;;;6.77;1.13;;;;;;;15.62;81.56;96406.88;4318557;32;20205;-59
2022/10/27 09:59:42;;;;;;;0.23;0.23;;;;;;;15.71;81.33;96399.72;4317879;32;20189;-58
2022/10/27 10:02:23;;;;;;;1.43;0.47;;;;;;;15.78;79.82;96392.09;4317835;32;20284;-58
2022/10/27 10:04:48;;;;;;;1.37;0.67;;;;;;;15.95;78.84;96394.16;4313604;32;20204;-58
2022/10/27 10:07:38;;;;;;;0.47;0.47;;;;;;;16.01;78.09;96400.97;4325308;32;20194;-58
2022/10/27 10:10:25;;;;;;;0.93;0.87;;;;;;;16.08;76.67;96404.03;4339961;32;20216;-58
2022/10/27 10:13:11;;;;;;;1.87;0.60;;;;;;;16.16;75.39;96399.84;4316205;32;20193;-58
2022/10/27 10:15:40;;;;;;;4.60;0.73;;;;;;;16.22;74.87;96401.31;4312581;32;20205;-58
2022/10/27 10:18:20;;;;;;;0.70;0.70;;;;;;;16.15;75.79;96396.37;4314691;33;20265;-57
2022/10/27 10:21:03;;;;;;;0.30;0.30;;;;;;;16.12;76.24;96399.66;4323816;32;20204;-58
2022/10/27 10:23:55;;;;;;;2.47;0.50;;;;;;;16.16;75.39;96394.50;4304555;32;20291;-58
2022/10/27 10:26:24;;;;;;;0.43;0.43;;;;;;;16.30;74.47;96397.91;4302024;32;20208;-58
2022/10/27 10:28:54;;;;;;;3.93;1.00;;;;;;;16.35;74.04;96397.81;4302890;32;20251;-58
2022/10/27 10:31:28;;;;;;;1.10;0.90;;;;;;;16.33;74.62;96400.00;4317845;32;20264;-59
2022/10/27 10:34:05;;;;;;;0.53;0.53;;;;;;;16.34;75.88;96401.59;4303759;32;20216;-58
2022/10/27 10:36:40;;;;;;;0.33;0.33;;;;;;;16.40;74.30;96403.06;4298663;33;20345;-58
2022/10/27 10:39:32;;;;;;;0.50;0.50;;;;;;;16.51;73.46;96406.28;4324369;32;20189;-58
2022/10/27 10:42:14;;;;;;;3.37;3.17;;;;;;;16.58;73.12;96405.84;4286250;33;20269;-58
2022/10/27 10:44:40;;;;;;;1.80;1.70;;;;;;;16.70;72.55;96404.22;4292407;33;20193;-68
2022/10/27 10:47:35;;;;;;;1.50;0.87;;;;;;;16.70;73.29;96390.03;4316061;33;20182;-58
2022/10/27 10:50:01;;;;;;;0.70;0.70;;;;;;;16.72;74.09;96394.00;4298820;33;20273;-58
2022/10/27 10:52:34;;;;;;;0.53;0.53;;;;;;;16.82;73.26;96391.09;4313394;32;20233;-58
2022/10/27 10:55:15;;;;;;;0.60;0.60;;;;;;;16.86;72.77;96393.91;4306100;32;20255;-58
2022/10/27 10:57:44;;;;;;;1.03;1.03;;;;;;;16.89;73.09;96387.16;4304606;33;20183;-62
2022/10/27 11:00:19;;;;;;;0.47;0.47;;;;;;;16.91;72.70;96391.13;4313943;33;20225;-67
2022/10/27 11:03:04;;;;;;;0.33;0.33;;;;;;;17.04;71.44;96395.59;4314412;32;20184;-58
2022/10/27 11:05:37;;;;;;;0.67;0.67;;;;;;;17.12;70.90;96389.50;4306380;32;20279;-60
2022/10/27 11:08:05;;;;;;;1.60;0.60;;;;;;;17.21;70.51;96391.44;4307926;32;20276;-57
2022/10/27 11:10:42;;;;;;;0.43;0.43;;;;;;;17.31;70.50;96383.09;4317206;32;20424;-58
2022/10/27 11:13:24;;;;;;;0.40;0.40;;;;;;;17.33;70.73;96367.50;4290162;33;20197;-59
2022/10/27 11:15:56;;;;;;;2.40;0.87;;;;;;;17.51;70.18;96379.84;4314678;32;20233;-59
2022/10/27 11:18:50;;;;;;;0.67;0.67;;;;;;;17.65;69.48;96385.16;4309662;33;20194;-59
2022/10/27 11:21:33;;;;;;;0.40;0.40;;;;;;;17.66;69.74;96374.13;4292531;33;20210;-58
2022/10/27 11:24:30;;;;;;;2.83;0.50;;;;;;;17.51;70.49;96382.53;4285147;33;20268;-58
2022/10/27 11:27:17;;;;;;;0.63;0.63;;;;;;;17.44;70.68;96368.81;4311588;33;20212;-58
2022/10/27 11:30:02;;;;;;;0.80;0.40;;;;;;;17.52;70.33;96376.06;4308649;32;20182;-58
2022/10/27 11:32:56;;;;;;;0.53;0.53;;;;;;;17.50;71.10;96371.03;4313246;32;20201;-58
2022/10/27 11:35:32;;;;;;;1.07;0.67;;;;;;;17.55;69.75;96366.63;4318631;33;20190;-58
2022/10/27 11:38:22;;;;;;;1.50;1.40;;;;;;;17.60;70.24;96366.47;4280890;33;20208;-58
2022/10/27 11:40:57;;;;;;;1.10;1.10;;;;;;;17.60;71.39;96359.22;4332244;32;20198;-58
2022/10/27 11:43:43;;;;;;;0.80;0.80;;;;;;;17.72;69.63;96351.38;4320485;32;20240;-40
2022/10/27 11:46:18;;;;;;;1.37;1.30;;;;;;;18.00;71.78;96357.25;4317444;32;20181;-42
2022/10/27 11:49:20;;;;;;;3.13;2.83;;;;;;;18.06;75.74;96357.91;4294491;32;20214;-42
2022/10/27 11:51:58;;;;;;;2.73;2.53;;;;;;;18.33;85.39;96352.19;4309505;33;20189;-43
2022/10/27 11:54:26;;;;;;;4.27;1.93;;;;;;;18.43;84.70;96351.09;4312708;33;20265;-42
2022/10/27 11:57:19;;;;;;;2.60;2.40;;;;;;;18.58;80.82;96347.91;4309063;33;20216;-42
2022/10/27 12:00:20;;;;;;;2.80;2.60;;;;;;;18.67;83.20;96347.94;4308010;33;20277;-41